PWSweather.com
Personal Weather Stations
Station Observations
KWAGIGHA17
Gig Harbor, WA 98332

Gig Harbor, WA 98332

Lat: 47.35323, Lon: -122.58817

Elevation: 318

Station Type: Davis VP2 Wireless

http://www.gigharborweather.com

Latest ConditionsUpdated 11:40:06 PM PDT Thursday, Apr 24, 2014
Currently Today's Max Today's Min Today's Average
Temperature 44.4°F6.9°C 55.0°F12.8°C 44.4°F6.9°C 49.7°F9.8°C
Dew Point 40.5°F4.7°C 48.6°F9.2°C 40.5°F4.7°C 45.2°F7.3°C
Winds Calm Calm 11.1 mph SW17.9 kmh SW - 3.1 mph 5.0 kmh
Wind Gusts -- 19.0 mph30.6 kmh - -
Humidity 86% 93% 69% 85%
Pressure 29.89 in1012.2 mb 29.89 in1012.2 mb 29.58 in1001.7 mb -
Precipitation - 0.49 in12.4 mm - -
Hour Temp Dew Point Humidity Winds Wind Gusts Pressure Precip Precip Rate Daily Precip Total
11:40 PM 44.4°F6.9°C 40.5°F4.7°C 86% Calm Calm -- 29.89 in1012.2 mb 0.00 in0.0 mm 0.00 in/hr0.0 mm/hr 0.49 in12.4 mm
11:30 PM 44.5°F6.9°C 40.6°F4.8°C 86% Calm Calm 2.0 mph3.2 kmh 29.89 in1012.2 mb 0.00 in0.0 mm 0.00 in/hr0.0 mm/hr 0.49 in12.4 mm
11:20 PM 44.6°F7.0°C 40.7°F4.8°C 86% 0.6 mph SSW1.0 kmh SSW 3.0 mph4.8 kmh 29.89 in1012.2 mb 0.00 in0.0 mm 0.00 in/hr0.0 mm/hr 0.49 in12.4 mm
11:10 PM 44.9°F7.2°C 40.7°F4.8°C 85% 0.9 mph S1.4 kmh S 2.0 mph3.2 kmh 29.89 in1012.2 mb 0.00 in0.0 mm 0.00 in/hr0.0 mm/hr 0.49 in12.4 mm
11:00 PM 45.0°F7.2°C 41.1°F5.1°C 86% Calm Calm -- 29.89 in1012.2 mb 0.00 in0.0 mm 0.00 in/hr0.0 mm/hr 0.49 in12.4 mm
10:50 PM 45.1°F7.3°C 41.2°F5.1°C 86% 0.2 mph S0.3 kmh S 2.0 mph3.2 kmh 29.89 in1012.2 mb 0.00 in0.0 mm 0.00 in/hr0.0 mm/hr 0.49 in12.4 mm
10:40 PM 45.2°F7.3°C 41.3°F5.2°C 86% 1.5 mph SSW2.4 kmh SSW 2.0 mph3.2 kmh 29.89 in1012.2 mb 0.00 in0.0 mm 0.00 in/hr0.0 mm/hr 0.49 in12.4 mm
10:30 PM 45.2°F7.3°C 41.3°F5.2°C 86% 0.1 mph SW0.2 kmh SW 1.0 mph1.6 kmh 29.89 in1012.2 mb 0.00 in0.0 mm 0.00 in/hr0.0 mm/hr 0.49 in12.4 mm
10:20 PM 45.1°F7.3°C 41.2°F5.1°C 86% Calm Calm -- 29.89 in1012.2 mb 0.00 in0.0 mm 0.00 in/hr0.0 mm/hr 0.49 in12.4 mm
10:10 PM 45.2°F7.3°C 41.0°F5.0°C 85% 0.2 mph WSW0.3 kmh WSW 1.0 mph1.6 kmh 29.88 in1011.9 mb 0.00 in0.0 mm 0.00 in/hr0.0 mm/hr 0.49 in12.4 mm
10:00 PM 45.3°F7.4°C 41.1°F5.1°C 85% Calm Calm -- 29.88 in1011.9 mb 0.00 in0.0 mm 0.00 in/hr0.0 mm/hr 0.49 in12.4 mm
09:50 PM 45.5°F7.5°C 41.0°F5.0°C 84% Calm Calm -- 29.88 in1011.9 mb 0.00 in0.0 mm 0.00 in/hr0.0 mm/hr 0.49 in12.4 mm
09:40 PM 45.8°F7.7°C 41.2°F5.1°C 84% Calm Calm -- 29.88 in1011.9 mb 0.00 in0.0 mm 0.00 in/hr0.0 mm/hr 0.49 in12.4 mm
09:30 PM 46.0°F7.8°C 41.4°F5.2°C 84% 0.3 mph WSW0.5 kmh WSW 1.0 mph1.6 kmh 29.88 in1011.9 mb 0.00 in0.0 mm 0.00 in/hr0.0 mm/hr 0.49 in12.4 mm
09:20 PM 46.2°F7.9°C 41.3°F5.2°C 83% Calm Calm 1.0 mph1.6 kmh 29.88 in1011.9 mb 0.00 in0.0 mm 0.00 in/hr0.0 mm/hr 0.49 in12.4 mm
09:10 PM 46.5°F8.1°C 41.6°F5.3°C 83% 0.2 mph WSW0.3 kmh WSW 3.0 mph4.8 kmh 29.88 in1011.9 mb 0.00 in0.0 mm 0.00 in/hr0.0 mm/hr 0.49 in12.4 mm
09:00 PM 46.6°F8.1°C 41.4°F5.2°C 82% 0.8 mph WSW1.3 kmh WSW 2.0 mph3.2 kmh 29.88 in1011.9 mb 0.00 in0.0 mm 0.00 in/hr0.0 mm/hr 0.49 in12.4 mm
08:50 PM 46.8°F8.2°C 41.6°F5.3°C 82% 0.9 mph SW1.4 kmh SW 1.0 mph1.6 kmh 29.87 in1011.5 mb 0.00 in0.0 mm 0.00 in/hr0.0 mm/hr 0.49 in12.4 mm
08:40 PM 46.9°F8.3°C 41.7°F5.4°C 82% 0.9 mph SW1.4 kmh SW 1.0 mph1.6 kmh 29.87 in1011.5 mb 0.00 in0.0 mm 0.00 in/hr0.0 mm/hr 0.49 in12.4 mm
08:30 PM 47.2°F8.4°C 42.0°F5.6°C 82% 0.1 mph SW0.2 kmh SW -- 29.87 in1011.5 mb 0.00 in0.0 mm 0.00 in/hr0.0 mm/hr 0.49 in12.4 mm
08:20 PM 47.6°F8.7°C 42.7°F5.9°C 83% 0.9 mph SW1.4 kmh SW 1.0 mph1.6 kmh 29.87 in1011.5 mb 0.00 in0.0 mm 0.00 in/hr0.0 mm/hr 0.49 in12.4 mm
08:10 PM 47.6°F8.7°C 42.7°F5.9°C 83% 0.8 mph W1.3 kmh W 1.0 mph1.6 kmh 29.87 in1011.5 mb 0.00 in0.0 mm 0.00 in/hr0.0 mm/hr 0.49 in12.4 mm
08:00 PM 47.1°F8.4°C 42.5°F5.8°C 84% 2.2 mph SW3.5 kmh SW 5.0 mph8.0 kmh 29.86 in1011.2 mb 0.00 in0.0 mm 0.00 in/hr0.0 mm/hr 0.49 in12.4 mm
07:50 PM 47.3°F8.5°C 42.4°F5.8°C 83% Calm Calm -- 29.87 in1011.5 mb 0.00 in0.0 mm 0.00 in/hr0.0 mm/hr 0.49 in12.4 mm
07:40 PM 47.5°F8.6°C 42.3°F5.7°C 82% Calm Calm -- 29.87 in1011.5 mb 0.00 in0.0 mm 0.00 in/hr0.0 mm/hr 0.49 in12.4 mm
07:30 PM 48.1°F8.9°C 42.2°F5.7°C 80% Calm Calm 1.0 mph1.6 kmh 29.87 in1011.5 mb 0.00 in0.0 mm 0.00 in/hr0.0 mm/hr 0.49 in12.4 mm
07:20 PM 48.8°F9.3°C 41.9°F5.5°C 77% Calm Calm 1.0 mph1.6 kmh 29.87 in1011.5 mb 0.00 in0.0 mm 0.00 in/hr0.0 mm/hr 0.49 in12.4 mm
07:10 PM 49.5°F9.7°C 41.9°F5.5°C 75% 2.6 mph SW4.2 kmh SW 4.0 mph6.4 kmh 29.87 in1011.5 mb 0.00 in0.0 mm 0.00 in/hr0.0 mm/hr 0.49 in12.4 mm
07:00 PM 49.9°F9.9°C 41.9°F5.5°C 74% 3.3 mph W5.3 kmh W 6.0 mph9.7 kmh 29.86 in1011.2 mb 0.00 in0.0 mm 0.00 in/hr0.0 mm/hr 0.49 in12.4 mm
06:50 PM 50.8°F10.4°C 42.1°F5.6°C 72% 3.7 mph WSW6.0 kmh WSW 8.0 mph12.9 kmh 29.86 in1011.2 mb 0.00 in0.0 mm 0.00 in/hr0.0 mm/hr 0.49 in12.4 mm
06:40 PM 50.8°F10.4°C 42.1°F5.6°C 72% 3.6 mph WSW5.8 kmh WSW 6.0 mph9.7 kmh 29.86 in1011.2 mb 0.00 in0.0 mm 0.00 in/hr0.0 mm/hr 0.49 in12.4 mm
06:30 PM 50.1°F10.1°C 41.8°F5.4°C 73% 4.4 mph SW7.1 kmh SW 7.0 mph11.3 kmh 29.87 in1011.5 mb 0.00 in0.0 mm 0.00 in/hr0.0 mm/hr 0.49 in12.4 mm
06:20 PM 50.8°F10.4°C 41.3°F5.2°C 70% 7.5 mph SW12.1 kmh SW 13.0 mph20.9 kmh 29.87 in1011.5 mb 0.00 in0.0 mm 0.00 in/hr0.0 mm/hr 0.49 in12.4 mm
06:10 PM 51.8°F11.0°C 43.4°F6.3°C 73% 2.8 mph W4.5 kmh W 8.0 mph12.9 kmh 29.86 in1011.2 mb 0.00 in0.0 mm 0.00 in/hr0.0 mm/hr 0.49 in12.4 mm
06:00 PM 52.5°F11.4°C 43.4°F6.3°C 71% 4.6 mph SW7.4 kmh SW 8.0 mph12.9 kmh 29.86 in1011.2 mb 0.00 in0.0 mm 0.00 in/hr0.0 mm/hr 0.49 in12.4 mm
05:50 PM 52.2°F11.2°C 42.7°F5.9°C 70% 4.8 mph W7.7 kmh W 9.0 mph14.5 kmh 29.86 in1011.2 mb 0.00 in0.0 mm 0.00 in/hr0.0 mm/hr 0.49 in12.4 mm
05:40 PM 51.8°F11.0°C 43.0°F6.1°C 72% 2.5 mph SW4.0 kmh SW 6.0 mph9.7 kmh 29.86 in1011.2 mb 0.00 in0.0 mm 0.00 in/hr0.0 mm/hr 0.49 in12.4 mm
05:30 PM 52.6°F11.4°C 43.4°F6.3°C 71% 2.2 mph SW3.5 kmh SW 9.0 mph14.5 kmh 29.86 in1011.2 mb 0.00 in0.0 mm 0.00 in/hr0.0 mm/hr 0.49 in12.4 mm
05:20 PM 53.6°F12.0°C 44.0°F6.7°C 70% 3.1 mph W5.0 kmh W 9.0 mph14.5 kmh 29.85 in1010.8 mb 0.00 in0.0 mm 0.00 in/hr0.0 mm/hr 0.49 in12.4 mm
05:10 PM 55.0°F12.8°C 45.0°F7.2°C 69% 3.9 mph SW6.3 kmh SW 5.0 mph8.0 kmh 29.84 in1010.5 mb 0.00 in0.0 mm 0.00 in/hr0.0 mm/hr 0.49 in12.4 mm
05:00 PM 54.1°F12.3°C 44.2°F6.8°C 69% 4.7 mph SSW7.6 kmh SSW 11.0 mph17.7 kmh 29.84 in1010.5 mb 0.00 in0.0 mm 0.00 in/hr0.0 mm/hr 0.49 in12.4 mm
04:50 PM 53.4°F11.9°C 45.3°F7.4°C 74% 5.1 mph SSW8.2 kmh SSW 14.0 mph22.5 kmh 29.84 in1010.5 mb 0.00 in0.0 mm 0.00 in/hr0.0 mm/hr 0.49 in12.4 mm
04:40 PM 52.0°F11.1°C 43.2°F6.2°C 72% 4.8 mph S7.7 kmh S 8.0 mph12.9 kmh 29.84 in1010.5 mb 0.00 in0.0 mm 0.00 in/hr0.0 mm/hr 0.49 in12.4 mm
04:30 PM 52.0°F11.1°C 44.0°F6.7°C 74% 3.2 mph SW5.1 kmh SW 7.0 mph11.3 kmh 29.85 in1010.8 mb 0.00 in0.0 mm 0.00 in/hr0.0 mm/hr 0.49 in12.4 mm
04:20 PM 51.8°F11.0°C 44.2°F6.8°C 75% 4.1 mph WSW6.6 kmh WSW 7.0 mph11.3 kmh 29.85 in1010.8 mb 0.00 in0.0 mm 0.00 in/hr0.0 mm/hr 0.49 in12.4 mm
04:10 PM 52.7°F11.5°C 46.4°F8.0°C 79% 4.3 mph W6.9 kmh W 10.0 mph16.1 kmh 29.85 in1010.8 mb 0.00 in0.0 mm 0.00 in/hr0.0 mm/hr 0.49 in12.4 mm
04:00 PM 53.4°F11.9°C 45.7°F7.6°C 75% 11.1 mph SW17.9 kmh SW 19.0 mph30.6 kmh 29.84 in1010.5 mb 0.00 in0.0 mm 0.00 in/hr0.0 mm/hr 0.49 in12.4 mm
03:50 PM 53.6°F12.0°C 46.9°F8.3°C 78% 3.8 mph W6.1 kmh W 10.0 mph16.1 kmh 29.84 in1010.5 mb 0.00 in0.0 mm 0.00 in/hr0.0 mm/hr 0.49 in12.4 mm
03:40 PM 53.0°F11.7°C 47.3°F8.5°C 81% 4.5 mph W7.2 kmh W 11.0 mph17.7 kmh 29.85 in1010.8 mb 0.00 in0.0 mm 0.00 in/hr0.0 mm/hr 0.49 in12.4 mm
03:30 PM 52.3°F11.3°C 47.6°F8.7°C 84% 5.6 mph WSW9.0 kmh WSW 10.0 mph16.1 kmh 29.85 in1010.8 mb 0.00 in0.0 mm 0.00 in/hr0.0 mm/hr 0.49 in12.4 mm
03:20 PM 50.9°F10.5°C 47.5°F8.6°C 88% 1.0 mph S1.6 kmh S 5.0 mph8.0 kmh 29.85 in1010.8 mb 0.01 in0.3 mm 0.06 in/hr1.5 mm/hr 0.49 in12.4 mm
03:10 PM 48.2°F9.0°C 44.8°F7.1°C 88% 1.9 mph SSW3.1 kmh SSW 5.0 mph8.0 kmh 29.85 in1010.8 mb 0.00 in0.0 mm 0.00 in/hr0.0 mm/hr 0.48 in12.2 mm
03:00 PM 47.9°F8.8°C 43.9°F6.6°C 86% 3.2 mph WSW5.1 kmh WSW 4.0 mph6.4 kmh 29.85 in1010.8 mb 0.01 in0.3 mm 0.01 in/hr0.3 mm/hr 0.48 in12.2 mm
02:50 PM 50.9°F10.5°C 44.6°F7.0°C 79% 4.9 mph WSW7.9 kmh WSW 16.0 mph25.7 kmh 29.85 in1010.8 mb 0.02 in0.5 mm 0.12 in/hr3.0 mm/hr 0.47 in11.9 mm
02:40 PM 53.0°F11.7°C 46.7°F8.2°C 79% 3.4 mph S5.5 kmh S 6.0 mph9.7 kmh 29.83 in1010.2 mb 0.00 in0.0 mm 0.00 in/hr0.0 mm/hr 0.45 in11.4 mm
02:30 PM 53.0°F11.7°C 47.3°F8.5°C 81% 6.3 mph WSW10.1 kmh WSW 10.0 mph16.1 kmh 29.83 in1010.2 mb 0.00 in0.0 mm 0.00 in/hr0.0 mm/hr 0.45 in11.4 mm
02:20 PM 51.6°F10.9°C 46.9°F8.3°C 84% 5.8 mph SW9.3 kmh SW 9.0 mph14.5 kmh 29.84 in1010.5 mb 0.00 in0.0 mm 0.00 in/hr0.0 mm/hr 0.45 in11.4 mm
02:10 PM 51.8°F11.0°C 47.5°F8.6°C 85% 3.1 mph WSW5.0 kmh WSW 7.0 mph11.3 kmh 29.83 in1010.2 mb 0.00 in0.0 mm 0.00 in/hr0.0 mm/hr 0.45 in11.4 mm
02:00 PM 50.0°F10.0°C 46.2°F7.9°C 87% 3.5 mph SSE5.6 kmh SSE 6.0 mph9.7 kmh 29.83 in1010.2 mb 0.00 in0.0 mm 0.00 in/hr0.0 mm/hr 0.45 in11.4 mm
01:50 PM 49.1°F9.5°C 46.2°F7.9°C 90% 5.5 mph WSW8.9 kmh WSW 10.0 mph16.1 kmh 29.83 in1010.2 mb 0.00 in0.0 mm 0.00 in/hr0.0 mm/hr 0.45 in11.4 mm
01:40 PM 48.0°F8.9°C 44.9°F7.2°C 89% 3.3 mph WSW5.3 kmh WSW 4.0 mph6.4 kmh 29.83 in1010.2 mb 0.03 in0.8 mm 0.18 in/hr4.6 mm/hr 0.45 in11.4 mm
01:30 PM 48.2°F9.0°C 43.9°F6.6°C 85% 6.6 mph W10.6 kmh W 12.0 mph19.3 kmh 29.83 in1010.2 mb 0.01 in0.3 mm 0.06 in/hr1.5 mm/hr 0.42 in10.7 mm
01:20 PM 50.8°F10.4°C 44.2°F6.8°C 78% 7.9 mph WNW12.7 kmh WNW 14.0 mph22.5 kmh 29.82 in1009.8 mb 0.00 in0.0 mm 0.00 in/hr0.0 mm/hr 0.41 in10.4 mm
01:10 PM 52.4°F11.3°C 46.7°F8.2°C 81% 8.4 mph WSW13.5 kmh WSW 11.0 mph17.7 kmh 29.81 in1009.5 mb 0.00 in0.0 mm 0.00 in/hr0.0 mm/hr 0.41 in10.4 mm
01:00 PM 51.8°F11.0°C 46.8°F8.2°C 83% 5.8 mph W9.3 kmh W 8.0 mph12.9 kmh 29.80 in1009.1 mb 0.00 in0.0 mm 0.00 in/hr0.0 mm/hr 0.41 in10.4 mm
12:50 PM 51.1°F10.6°C 47.7°F8.7°C 88% 6.6 mph SW10.6 kmh SW 13.0 mph20.9 kmh 29.80 in1009.1 mb 0.00 in0.0 mm 0.00 in/hr0.0 mm/hr 0.41 in10.4 mm
12:40 PM 49.7°F9.8°C 46.2°F7.9°C 88% 2.0 mph SW3.2 kmh SW 6.0 mph9.7 kmh 29.80 in1009.1 mb 0.02 in0.5 mm 0.12 in/hr3.0 mm/hr 0.41 in10.4 mm
12:30 PM 50.3°F10.2°C 45.7°F7.6°C 84% 4.0 mph SW6.4 kmh SW 7.0 mph11.3 kmh 29.79 in1008.8 mb 0.01 in0.3 mm 0.06 in/hr1.5 mm/hr 0.40 in10.2 mm
12:20 PM 52.4°F11.3°C 45.7°F7.6°C 78% 4.1 mph WNW6.6 kmh WNW 12.0 mph19.3 kmh 29.79 in1008.8 mb 0.00 in0.0 mm 0.00 in/hr0.0 mm/hr 0.39 in9.9 mm
12:10 PM 54.9°F12.7°C 46.1°F7.8°C 72% 6.3 mph WSW10.1 kmh WSW 17.0 mph27.4 kmh 29.79 in1008.8 mb 0.00 in0.0 mm 0.00 in/hr0.0 mm/hr 0.39 in9.9 mm
12:00 PM 54.3°F12.4°C 46.2°F7.9°C 74% 9.1 mph WNW14.6 kmh WNW 13.0 mph20.9 kmh 29.78 in1008.5 mb 0.00 in0.0 mm 0.00 in/hr0.0 mm/hr 0.39 in9.9 mm
11:50 AM 54.5°F12.5°C 46.1°F7.8°C 73% 7.7 mph S12.4 kmh S 14.0 mph22.5 kmh 29.77 in1008.1 mb 0.00 in0.0 mm 0.00 in/hr0.0 mm/hr 0.39 in9.9 mm
11:40 AM 54.6°F12.6°C 45.4°F7.4°C 71% 5.3 mph ESE8.5 kmh ESE 8.0 mph12.9 kmh 29.77 in1008.1 mb 0.00 in0.0 mm 0.00 in/hr0.0 mm/hr 0.39 in9.9 mm
11:30 AM 53.7°F12.1°C 45.6°F7.6°C 74% 4.7 mph SW7.6 kmh SW 6.0 mph9.7 kmh 29.76 in1007.8 mb 0.00 in0.0 mm 0.00 in/hr0.0 mm/hr 0.39 in9.9 mm
11:20 AM 52.9°F11.6°C 46.2°F7.9°C 78% 3.6 mph W5.8 kmh W 12.0 mph19.3 kmh 29.76 in1007.8 mb 0.00 in0.0 mm 0.00 in/hr0.0 mm/hr 0.39 in9.9 mm
11:10 AM 53.5°F11.9°C 45.5°F7.5°C 74% 2.4 mph WSW3.9 kmh WSW 7.0 mph11.3 kmh 29.76 in1007.8 mb 0.00 in0.0 mm 0.00 in/hr0.0 mm/hr 0.39 in9.9 mm
11:00 AM 55.0°F12.8°C 46.5°F8.1°C 73% 2.7 mph S4.3 kmh S 6.0 mph9.7 kmh 29.75 in1007.5 mb 0.00 in0.0 mm 0.00 in/hr0.0 mm/hr 0.39 in9.9 mm
10:50 AM 54.5°F12.5°C 46.7°F8.2°C 75% 5.0 mph SSW8.0 kmh SSW 9.0 mph14.5 kmh 29.75 in1007.5 mb 0.00 in0.0 mm 0.00 in/hr0.0 mm/hr 0.39 in9.9 mm
10:40 AM 53.6°F12.0°C 46.6°F8.1°C 77% 1.2 mph WSW1.9 kmh WSW 6.0 mph9.7 kmh 29.75 in1007.5 mb 0.00 in0.0 mm 0.00 in/hr0.0 mm/hr 0.39 in9.9 mm
10:30 AM 52.7°F11.5°C 46.0°F7.8°C 78% 7.5 mph S12.1 kmh S 8.0 mph12.9 kmh 29.74 in1007.1 mb 0.00 in0.0 mm 0.00 in/hr0.0 mm/hr 0.39 in9.9 mm
10:20 AM 52.5°F11.4°C 45.8°F7.7°C 78% 4.7 mph SW7.6 kmh SW 8.0 mph12.9 kmh 29.74 in1007.1 mb 0.00 in0.0 mm 0.00 in/hr0.0 mm/hr 0.39 in9.9 mm
10:10 AM 51.7°F10.9°C 45.7°F7.6°C 80% 4.1 mph SE6.6 kmh SE 9.0 mph14.5 kmh 29.74 in1007.1 mb 0.00 in0.0 mm 0.00 in/hr0.0 mm/hr 0.39 in9.9 mm
10:00 AM 51.2°F10.7°C 46.5°F8.1°C 84% 2.9 mph S4.7 kmh S 6.0 mph9.7 kmh 29.73 in1006.8 mb 0.00 in0.0 mm 0.00 in/hr0.0 mm/hr 0.39 in9.9 mm
09:50 AM 50.6°F10.3°C 46.2°F7.9°C 85% 5.2 mph SE8.4 kmh SE 8.0 mph12.9 kmh 29.73 in1006.8 mb 0.00 in0.0 mm 0.00 in/hr0.0 mm/hr 0.39 in9.9 mm
09:40 AM 49.9°F9.9°C 45.9°F7.7°C 86% 7.0 mph WSW11.3 kmh WSW 11.0 mph17.7 kmh 29.73 in1006.8 mb 0.00 in0.0 mm 0.00 in/hr0.0 mm/hr 0.39 in9.9 mm
09:30 AM 49.4°F9.7°C 45.7°F7.6°C 87% 6.3 mph SSE10.1 kmh SSE 9.0 mph14.5 kmh 29.72 in1006.4 mb 0.00 in0.0 mm 0.00 in/hr0.0 mm/hr 0.39 in9.9 mm
09:20 AM 49.1°F9.5°C 46.0°F7.8°C 89% 3.6 mph SW5.8 kmh SW 8.0 mph12.9 kmh 29.72 in1006.4 mb 0.00 in0.0 mm 0.00 in/hr0.0 mm/hr 0.39 in9.9 mm
09:10 AM 48.8°F9.3°C 46.0°F7.8°C 90% 3.0 mph SW4.8 kmh SW 10.0 mph16.1 kmh 29.72 in1006.4 mb 0.00 in0.0 mm 0.00 in/hr0.0 mm/hr 0.39 in9.9 mm
09:00 AM 48.8°F9.3°C 46.3°F7.9°C 91% 5.0 mph S8.0 kmh S 9.0 mph14.5 kmh 29.72 in1006.4 mb 0.00 in0.0 mm 0.00 in/hr0.0 mm/hr 0.39 in9.9 mm
08:50 AM 48.6°F9.2°C 46.1°F7.8°C 91% 1.9 mph SE3.1 kmh SE 7.0 mph11.3 kmh 29.71 in1006.1 mb 0.00 in0.0 mm 0.00 in/hr0.0 mm/hr 0.39 in9.9 mm
08:40 AM 48.3°F9.1°C 45.8°F7.7°C 91% 1.6 mph WSW2.6 kmh WSW 7.0 mph11.3 kmh 29.71 in1006.1 mb 0.00 in0.0 mm 0.00 in/hr0.0 mm/hr 0.39 in9.9 mm
08:30 AM 48.1°F8.9°C 45.9°F7.7°C 92% 2.0 mph SE3.2 kmh SE 7.0 mph11.3 kmh 29.71 in1006.1 mb 0.00 in0.0 mm 0.00 in/hr0.0 mm/hr 0.39 in9.9 mm
08:20 AM 47.8°F8.8°C 45.3°F7.4°C 91% 2.6 mph S4.2 kmh S 6.0 mph9.7 kmh 29.70 in1005.8 mb 0.00 in0.0 mm 0.00 in/hr0.0 mm/hr 0.39 in9.9 mm
08:10 AM 47.6°F8.7°C 45.4°F7.4°C 92% 3.7 mph SSW6.0 kmh SSW 8.0 mph12.9 kmh 29.69 in1005.4 mb 0.00 in0.0 mm 0.00 in/hr0.0 mm/hr 0.39 in9.9 mm
08:00 AM 47.6°F8.7°C 45.4°F7.4°C 92% 4.8 mph WNW7.7 kmh WNW 10.0 mph16.1 kmh 29.68 in1005.1 mb 0.00 in0.0 mm 0.00 in/hr0.0 mm/hr 0.39 in9.9 mm
07:50 AM 47.5°F8.6°C 45.3°F7.4°C 92% 5.6 mph SW9.0 kmh SW 11.0 mph17.7 kmh 29.67 in1004.7 mb 0.00 in0.0 mm 0.00 in/hr0.0 mm/hr 0.39 in9.9 mm
07:40 AM 47.4°F8.6°C 45.2°F7.3°C 92% 4.2 mph W6.8 kmh W 7.0 mph11.3 kmh 29.67 in1004.7 mb 0.00 in0.0 mm 0.00 in/hr0.0 mm/hr 0.39 in9.9 mm
07:30 AM 47.2°F8.4°C 45.0°F7.2°C 92% 3.5 mph SW5.6 kmh SW 7.0 mph11.3 kmh 29.67 in1004.7 mb 0.00 in0.0 mm 0.00 in/hr0.0 mm/hr 0.39 in9.9 mm
07:20 AM 47.2°F8.4°C 44.7°F7.1°C 91% 5.7 mph WSW9.2 kmh WSW 13.0 mph20.9 kmh 29.67 in1004.7 mb 0.00 in0.0 mm 0.00 in/hr0.0 mm/hr 0.39 in9.9 mm
07:10 AM 47.4°F8.6°C 45.2°F7.3°C 92% 8.3 mph SSW13.4 kmh SSW 16.0 mph25.7 kmh 29.66 in1004.4 mb 0.00 in0.0 mm 0.00 in/hr0.0 mm/hr 0.39 in9.9 mm
07:00 AM 47.6°F8.7°C 45.4°F7.4°C 92% 4.0 mph S6.4 kmh S 6.0 mph9.7 kmh 29.66 in1004.4 mb 0.00 in0.0 mm 0.00 in/hr0.0 mm/hr 0.39 in9.9 mm
06:50 AM 47.9°F8.8°C 45.4°F7.4°C 91% 3.6 mph S5.8 kmh S 8.0 mph12.9 kmh 29.64 in1003.7 mb 0.00 in0.0 mm 0.00 in/hr0.0 mm/hr 0.39 in9.9 mm
06:40 AM 48.4°F9.1°C 46.2°F7.9°C 92% 6.5 mph SW10.5 kmh SW 11.0 mph17.7 kmh 29.64 in1003.7 mb 0.00 in0.0 mm 0.00 in/hr0.0 mm/hr 0.39 in9.9 mm
06:30 AM 49.1°F9.5°C 46.9°F8.3°C 92% 3.5 mph WSW5.6 kmh WSW 5.0 mph8.0 kmh 29.63 in1003.4 mb 0.00 in0.0 mm 0.00 in/hr0.0 mm/hr 0.39 in9.9 mm
06:20 AM 50.2°F10.1°C 47.9°F8.8°C 92% 7.1 mph WSW11.4 kmh WSW 12.0 mph19.3 kmh 29.63 in1003.4 mb 0.01 in0.3 mm 0.06 in/hr1.5 mm/hr 0.39 in9.9 mm
06:10 AM 50.5°F10.3°C 48.3°F9.1°C 92% 6.2 mph S10.0 kmh S 13.0 mph20.9 kmh 29.62 in1003.0 mb 0.02 in0.5 mm 0.12 in/hr3.0 mm/hr 0.38 in9.7 mm
06:00 AM 50.6°F10.3°C 48.4°F9.1°C 92% 3.4 mph WSW5.5 kmh WSW 6.0 mph9.7 kmh 29.61 in1002.7 mb 0.02 in0.5 mm 0.02 in/hr0.5 mm/hr 0.36 in9.1 mm
05:50 AM 50.6°F10.3°C 48.4°F9.1°C 92% 4.0 mph WSW6.4 kmh WSW 9.0 mph14.5 kmh 29.61 in1002.7 mb 0.00 in0.0 mm 0.00 in/hr0.0 mm/hr 0.34 in8.6 mm
05:40 AM 50.6°F10.3°C 48.4°F9.1°C 92% 3.1 mph WSW5.0 kmh WSW 4.0 mph6.4 kmh 29.60 in1002.4 mb 0.07 in1.8 mm 0.42 in/hr10.7 mm/hr 0.34 in8.6 mm
05:30 AM 50.6°F10.3°C 48.4°F9.1°C 92% 4.5 mph WSW7.2 kmh WSW 12.0 mph19.3 kmh 29.60 in1002.4 mb 0.10 in2.5 mm 0.60 in/hr15.2 mm/hr 0.28 in7.1 mm
05:20 AM 50.6°F10.3°C 48.4°F9.1°C 92% Calm Calm 1.0 mph1.6 kmh 29.59 in1002.0 mb 0.03 in0.8 mm 0.18 in/hr4.6 mm/hr 0.18 in4.6 mm
05:10 AM 50.6°F10.3°C 48.4°F9.1°C 92% 4.2 mph E6.8 kmh E 8.0 mph12.9 kmh 29.59 in1002.0 mb 0.01 in0.3 mm 0.06 in/hr1.5 mm/hr 0.15 in3.8 mm
05:00 AM 50.5°F10.3°C 48.6°F9.2°C 93% 3.9 mph SW6.3 kmh SW 7.0 mph11.3 kmh 29.59 in1002.0 mb 0.01 in0.3 mm 0.01 in/hr0.3 mm/hr 0.14 in3.6 mm
04:50 AM 50.5°F10.3°C 48.6°F9.2°C 93% 3.9 mph WNW6.3 kmh WNW 12.0 mph19.3 kmh 29.59 in1002.0 mb 0.00 in0.0 mm 0.00 in/hr0.0 mm/hr 0.13 in3.3 mm
04:40 AM 50.5°F10.3°C 48.6°F9.2°C 93% 4.5 mph S7.2 kmh S 8.0 mph12.9 kmh 29.59 in1002.0 mb 0.01 in0.3 mm 0.06 in/hr1.5 mm/hr 0.13 in3.3 mm
04:30 AM 50.5°F10.3°C 48.6°F9.2°C 93% 3.8 mph SW6.1 kmh SW 6.0 mph9.7 kmh 29.58 in1001.7 mb 0.00 in0.0 mm 0.00 in/hr0.0 mm/hr 0.12 in3.0 mm
04:20 AM 50.4°F10.2°C 48.5°F9.2°C 93% 5.5 mph SE8.9 kmh SE 12.0 mph19.3 kmh 29.59 in1002.0 mb 0.00 in0.0 mm 0.00 in/hr0.0 mm/hr 0.12 in3.0 mm
04:10 AM 50.4°F10.2°C 48.5°F9.2°C 93% 3.8 mph SE6.1 kmh SE 7.0 mph11.3 kmh 29.58 in1001.7 mb 0.01 in0.3 mm 0.06 in/hr1.5 mm/hr 0.12 in3.0 mm
04:00 AM 50.3°F10.2°C 48.4°F9.1°C 93% 5.4 mph SE8.7 kmh SE 13.0 mph20.9 kmh 29.58 in1001.7 mb 0.01 in0.3 mm 0.01 in/hr0.3 mm/hr 0.11 in2.8 mm
03:50 AM 50.3°F10.2°C 48.4°F9.1°C 93% 1.7 mph SSE2.7 kmh SSE 6.0 mph9.7 kmh 29.58 in1001.7 mb 0.01 in0.3 mm 0.06 in/hr1.5 mm/hr 0.10 in2.5 mm
03:40 AM 50.3°F10.2°C 48.3°F9.1°C 93% 5.1 mph SSW8.2 kmh SSW 10.0 mph16.1 kmh 29.58 in1001.7 mb 0.00 in0.0 mm 0.00 in/hr0.0 mm/hr 0.09 in2.3 mm
03:30 AM 50.1°F10.1°C 48.2°F9.0°C 93% 5.4 mph SSW8.7 kmh SSW 12.0 mph19.3 kmh 29.58 in1001.7 mb 0.00 in0.0 mm 0.00 in/hr0.0 mm/hr 0.09 in2.3 mm
03:20 AM 50.0°F10.0°C 48.0°F8.9°C 93% 2.8 mph SSE4.5 kmh SSE 7.0 mph11.3 kmh 29.59 in1002.0 mb 0.00 in0.0 mm 0.00 in/hr0.0 mm/hr 0.09 in2.3 mm
03:10 AM 49.7°F9.8°C 47.8°F8.8°C 93% 0.7 mph S1.1 kmh S 7.0 mph11.3 kmh 29.59 in1002.0 mb 0.01 in0.3 mm 0.06 in/hr1.5 mm/hr 0.09 in2.3 mm
03:00 AM 49.5°F9.7°C 47.2°F8.4°C 92% 2.1 mph S3.4 kmh S 7.0 mph11.3 kmh 29.58 in1001.7 mb 0.01 in0.3 mm 0.01 in/hr0.3 mm/hr 0.08 in2.0 mm
02:50 AM 49.3°F9.6°C 47.1°F8.4°C 92% 0.6 mph S1.0 kmh S 2.0 mph3.2 kmh 29.59 in1002.0 mb 0.00 in0.0 mm 0.00 in/hr0.0 mm/hr 0.07 in1.8 mm
02:40 AM 49.2°F9.6°C 47.3°F8.5°C 93% 1.2 mph S1.9 kmh S 4.0 mph6.4 kmh 29.59 in1002.0 mb 0.00 in0.0 mm 0.00 in/hr0.0 mm/hr 0.07 in1.8 mm
02:30 AM 49.1°F9.5°C 47.2°F8.4°C 93% 0.4 mph SSE0.6 kmh SSE -- 29.59 in1002.0 mb 0.01 in0.3 mm 0.06 in/hr1.5 mm/hr 0.07 in1.8 mm
02:20 AM 49.0°F9.4°C 47.1°F8.4°C 93% Calm Calm 1.0 mph1.6 kmh 29.59 in1002.0 mb 0.00 in0.0 mm 0.00 in/hr0.0 mm/hr 0.06 in1.5 mm
02:10 AM 48.8°F9.3°C 46.9°F8.3°C 93% Calm Calm 1.0 mph1.6 kmh 29.59 in1002.0 mb 0.01 in0.3 mm 0.06 in/hr1.5 mm/hr 0.06 in1.5 mm
02:00 AM 48.8°F9.3°C 46.6°F8.1°C 92% 0.7 mph S1.1 kmh S 6.0 mph9.7 kmh 29.60 in1002.4 mb 0.01 in0.3 mm 0.01 in/hr0.3 mm/hr 0.05 in1.3 mm
01:50 AM 48.8°F9.3°C 46.6°F8.1°C 92% 1.4 mph S2.3 kmh S 3.0 mph4.8 kmh 29.59 in1002.0 mb 0.00 in0.0 mm 0.00 in/hr0.0 mm/hr 0.04 in1.0 mm
01:40 AM 48.7°F9.3°C 46.5°F8.1°C 92% Calm Calm 1.0 mph1.6 kmh 29.60 in1002.4 mb 0.01 in0.3 mm 0.06 in/hr1.5 mm/hr 0.04 in1.0 mm
01:30 AM 48.7°F9.3°C 46.5°F8.1°C 92% Calm Calm -- 29.60 in1002.4 mb 0.00 in0.0 mm 0.00 in/hr0.0 mm/hr 0.03 in0.8 mm
01:20 AM 48.7°F9.3°C 46.5°F8.1°C 92% 1.7 mph S2.7 kmh S 3.0 mph4.8 kmh 29.60 in1002.4 mb 0.01 in0.3 mm 0.06 in/hr1.5 mm/hr 0.03 in0.8 mm
01:10 AM 48.6°F9.2°C 46.4°F8.0°C 92% Calm Calm -- 29.59 in1002.0 mb 0.00 in0.0 mm 0.00 in/hr0.0 mm/hr 0.02 in0.5 mm
01:00 AM 48.5°F9.2°C 46.3°F7.9°C 92% 0.9 mph ESE1.4 kmh ESE 1.0 mph1.6 kmh 29.59 in1002.0 mb 0.01 in0.3 mm 0.01 in/hr0.3 mm/hr 0.02 in0.5 mm
12:50 AM 48.5°F9.2°C 46.3°F7.9°C 92% 1.1 mph ENE1.8 kmh ENE 3.0 mph4.8 kmh 29.60 in1002.4 mb 0.01 in0.3 mm 0.06 in/hr1.5 mm/hr 0.01 in0.3 mm
12:40 AM 48.3°F9.1°C 46.1°F7.8°C 92% Calm Calm -- 29.60 in1002.4 mb 0.00 in0.0 mm 0.00 in/hr0.0 mm/hr 0.01 in0.3 mm
12:30 AM 48.2°F9.0°C 45.9°F7.7°C 92% 0.1 mph SE0.2 kmh SE 1.0 mph1.6 kmh 29.61 in1002.7 mb 0.00 in0.0 mm 0.00 in/hr0.0 mm/hr 0.01 in0.3 mm
12:20 AM 47.9°F8.8°C 45.7°F7.6°C 92% 1.6 mph ESE2.6 kmh ESE 4.0 mph6.4 kmh 29.61 in1002.7 mb 0.00 in0.0 mm 0.00 in/hr0.0 mm/hr 0.01 in0.3 mm
12:10 AM 47.7°F8.7°C 45.5°F7.5°C 92% Calm Calm -- 29.62 in1003.0 mb 0.00 in0.0 mm 0.00 in/hr0.0 mm/hr 0.01 in0.3 mm
12:00 AM 47.5°F8.6°C 45.3°F7.4°C 92% 0.1 mph SE0.2 kmh SE -- 29.62 in1003.0 mb 0.01 in0.3 mm 0.00 in/hr0.0 mm/hr 0.01 in0.3 mm